sensor_id;sensor_type;location;lat;lon;timestamp;P1;durP1;ratioP1;P2;durP2;ratioP2
58384;SDS011;44185;47.844;8.966;2023-04-16T00:00:11;6.15;;;3.88;;
58384;SDS011;44185;47.844;8.966;2023-04-16T00:02:36;6.00;;;3.95;;
58384;SDS011;44185;47.844;8.966;2023-04-16T00:05:03;7.03;;;3.70;;
58384;SDS011;44185;47.844;8.966;2023-04-16T00:07:29;7.93;;;4.25;;
58384;SDS011;44185;47.844;8.966;2023-04-16T00:09:55;9.05;;;4.47;;
58384;SDS011;44185;47.844;8.966;2023-04-16T00:12:20;6.03;;;3.58;;
58384;SDS011;44185;47.844;8.966;2023-04-16T00:14:46;5.10;;;3.45;;
58384;SDS011;44185;47.844;8.966;2023-04-16T00:17:11;9.13;;;4.85;;
58384;SDS011;44185;47.844;8.966;2023-04-16T00:19:37;7.25;;;4.28;;
58384;SDS011;44185;47.844;8.966;2023-04-16T00:22:04;5.95;;;3.65;;
58384;SDS011;44185;47.844;8.966;2023-04-16T00:24:29;7.75;;;3.92;;
58384;SDS011;44185;47.844;8.966;2023-04-16T00:26:55;7.55;;;4.35;;
58384;SDS011;44185;47.844;8.966;2023-04-16T00:29:20;8.18;;;3.90;;
58384;SDS011;44185;47.844;8.966;2023-04-16T00:31:46;7.60;;;4.32;;
58384;SDS011;44185;47.844;8.966;2023-04-16T00:34:11;6.00;;;3.88;;
58384;SDS011;44185;47.844;8.966;2023-04-16T00:36:37;7.95;;;4.13;;
58384;SDS011;44185;47.844;8.966;2023-04-16T00:39:03;7.38;;;4.50;;
58384;SDS011;44185;47.844;8.966;2023-04-16T00:41:29;7.82;;;4.38;;
58384;SDS011;44185;47.844;8.966;2023-04-16T00:43:54;9.38;;;5.18;;
58384;SDS011;44185;47.844;8.966;2023-04-16T00:46:20;7.00;;;4.30;;
58384;SDS011;44185;47.844;8.966;2023-04-16T00:48:47;9.57;;;4.70;;
58384;SDS011;44185;47.844;8.966;2023-04-16T00:51:14;8.32;;;4.80;;
58384;SDS011;44185;47.844;8.966;2023-04-16T00:53:40;10.30;;;4.72;;
58384;SDS011;44185;47.844;8.966;2023-04-16T00:56:08;10.57;;;5.32;;
58384;SDS011;44185;47.844;8.966;2023-04-16T00:58:35;9.98;;;5.10;;
58384;SDS011;44185;47.844;8.966;2023-04-16T01:01:01;9.40;;;4.82;;
58384;SDS011;44185;47.844;8.966;2023-04-16T01:03:29;7.55;;;4.75;;
58384;SDS011;44185;47.844;8.966;2023-04-16T01:06:01;9.30;;;5.22;;
58384;SDS011;44185;47.844;8.966;2023-04-16T01:08:26;7.63;;;4.57;;
58384;SDS011;44185;47.844;8.966;2023-04-16T01:10:52;7.18;;;4.13;;
58384;SDS011;44185;47.844;8.966;2023-04-16T01:13:19;7.43;;;4.25;;
58384;SDS011;44185;47.844;8.966;2023-04-16T01:15:44;7.03;;;4.32;;
58384;SDS011;44185;47.844;8.966;2023-04-16T01:18:13;9.25;;;4.47;;
58384;SDS011;44185;47.844;8.966;2023-04-16T01:20:40;7.00;;;4.20;;
58384;SDS011;44185;47.844;8.966;2023-04-16T01:23:06;6.80;;;4.20;;
58384;SDS011;44185;47.844;8.966;2023-04-16T01:25:31;8.93;;;4.57;;
58384;SDS011;44185;47.844;8.966;2023-04-16T01:27:57;9.35;;;4.30;;
58384;SDS011;44185;47.844;8.966;2023-04-16T01:30:22;7.07;;;4.53;;
58384;SDS011;44185;47.844;8.966;2023-04-16T01:32:48;6.28;;;4.35;;
58384;SDS011;44185;47.844;8.966;2023-04-16T01:35:13;8.93;;;4.50;;
58384;SDS011;44185;47.844;8.966;2023-04-16T01:37:40;7.53;;;4.32;;
58384;SDS011;44185;47.844;8.966;2023-04-16T01:40:06;6.93;;;4.35;;
58384;SDS011;44185;47.844;8.966;2023-04-16T01:42:32;8.32;;;4.50;;
58384;SDS011;44185;47.844;8.966;2023-04-16T01:44:57;7.97;;;4.22;;
58384;SDS011;44185;47.844;8.966;2023-04-16T01:47:23;6.63;;;4.10;;
58384;SDS011;44185;47.844;8.966;2023-04-16T01:49:49;6.95;;;4.03;;
58384;SDS011;44185;47.844;8.966;2023-04-16T01:52:14;6.05;;;3.70;;
58384;SDS011;44185;47.844;8.966;2023-04-16T01:54:41;4.43;;;3.22;;
58384;SDS011;44185;47.844;8.966;2023-04-16T01:57:07;5.38;;;3.30;;
58384;SDS011;44185;47.844;8.966;2023-04-16T01:59:32;5.88;;;3.42;;
58384;SDS011;44185;47.844;8.966;2023-04-16T02:01:58;4.78;;;3.25;;
58384;SDS011;44185;47.844;8.966;2023-04-16T02:04:25;5.10;;;3.05;;
58384;SDS011;44185;47.844;8.966;2023-04-16T02:06:54;5.80;;;3.40;;
58384;SDS011;44185;47.844;8.966;2023-04-16T02:09:19;4.75;;;2.85;;
58384;SDS011;44185;47.844;8.966;2023-04-16T02:11:46;6.15;;;3.25;;
58384;SDS011;44185;47.844;8.966;2023-04-16T02:14:12;5.63;;;3.33;;
58384;SDS011;44185;47.844;8.966;2023-04-16T02:16:37;5.10;;;3.55;;
58384;SDS011;44185;47.844;8.966;2023-04-16T02:19:03;6.43;;;3.50;;
58384;SDS011;44185;47.844;8.966;2023-04-16T02:21:28;7.00;;;3.65;;
58384;SDS011;44185;47.844;8.966;2023-04-16T02:23:53;5.68;;;3.78;;
58384;SDS011;44185;47.844;8.966;2023-04-16T02:26:19;6.38;;;3.45;;
58384;SDS011;44185;47.844;8.966;2023-04-16T02:28:46;6.68;;;3.50;;
58384;SDS011;44185;47.844;8.966;2023-04-16T02:31:11;6.82;;;3.60;;
58384;SDS011;44185;47.844;8.966;2023-04-16T02:33:37;8.02;;;3.83;;
58384;SDS011;44185;47.844;8.966;2023-04-16T02:36:02;8.20;;;4.30;;
58384;SDS011;44185;47.844;8.966;2023-04-16T02:38:28;7.45;;;4.05;;
58384;SDS011;44185;47.844;8.966;2023-04-16T02:40:53;7.05;;;3.70;;
58384;SDS011;44185;47.844;8.966;2023-04-16T02:43:19;7.15;;;4.00;;
58384;SDS011;44185;47.844;8.966;2023-04-16T02:45:46;7.82;;;4.07;;
58384;SDS011;44185;47.844;8.966;2023-04-16T02:48:11;6.60;;;3.40;;
58384;SDS011;44185;47.844;8.966;2023-04-16T02:50:37;8.05;;;3.80;;
58384;SDS011;44185;47.844;8.966;2023-04-16T02:53:02;6.88;;;3.53;;
58384;SDS011;44185;47.844;8.966;2023-04-16T02:55:27;8.32;;;4.00;;
58384;SDS011;44185;47.844;8.966;2023-04-16T02:57:53;8.18;;;4.03;;
58384;SDS011;44185;47.844;8.966;2023-04-16T03:00:19;8.35;;;3.90;;
58384;SDS011;44185;47.844;8.966;2023-04-16T03:02:46;6.72;;;3.88;;
58384;SDS011;44185;47.844;8.966;2023-04-16T03:05:11;6.70;;;3.85;;
58384;SDS011;44185;47.844;8.966;2023-04-16T03:07:37;7.82;;;3.65;;
58384;SDS011;44185;47.844;8.966;2023-04-16T03:10:02;6.00;;;3.33;;
58384;SDS011;44185;47.844;8.966;2023-04-16T03:12:28;7.57;;;3.95;;
58384;SDS011;44185;47.844;8.966;2023-04-16T03:14:54;6.78;;;3.53;;
58384;SDS011;44185;47.844;8.966;2023-04-16T03:17:19;7.15;;;3.72;;
58384;SDS011;44185;47.844;8.966;2023-04-16T03:19:46;8.75;;;4.05;;
58384;SDS011;44185;47.844;8.966;2023-04-16T03:22:12;6.68;;;3.75;;
58384;SDS011;44185;47.844;8.966;2023-04-16T03:24:37;7.45;;;4.07;;
58384;SDS011;44185;47.844;8.966;2023-04-16T03:27:03;7.50;;;3.70;;
58384;SDS011;44185;47.844;8.966;2023-04-16T03:29:28;7.00;;;3.80;;
58384;SDS011;44185;47.844;8.966;2023-04-16T03:31:54;7.68;;;4.05;;
58384;SDS011;44185;47.844;8.966;2023-04-16T03:34:19;8.13;;;3.90;;
58384;SDS011;44185;47.844;8.966;2023-04-16T03:36:46;6.97;;;4.05;;
58384;SDS011;44185;47.844;8.966;2023-04-16T03:39:11;8.32;;;4.05;;
58384;SDS011;44185;47.844;8.966;2023-04-16T03:41:37;6.68;;;3.65;;
58384;SDS011;44185;47.844;8.966;2023-04-16T03:44:02;8.23;;;3.42;;
58384;SDS011;44185;47.844;8.966;2023-04-16T03:46:28;8.10;;;3.50;;
58384;SDS011;44185;47.844;8.966;2023-04-16T03:48:54;7.72;;;3.97;;
58384;SDS011;44185;47.844;8.966;2023-04-16T03:51:19;10.27;;;4.60;;
58384;SDS011;44185;47.844;8.966;2023-04-16T03:53:46;6.90;;;3.40;;
58384;SDS011;44185;47.844;8.966;2023-04-16T03:56:12;8.82;;;4.35;;
58384;SDS011;44185;47.844;8.966;2023-04-16T03:58:37;7.60;;;3.72;;
58384;SDS011;44185;47.844;8.966;2023-04-16T04:01:02;7.38;;;4.05;;
58384;SDS011;44185;47.844;8.966;2023-04-16T04:03:28;7.93;;;3.80;;
58384;SDS011;44185;47.844;8.966;2023-04-16T04:05:53;8.57;;;4.15;;
58384;SDS011;44185;47.844;8.966;2023-04-16T04:08:19;8.00;;;3.95;;
58384;SDS011;44185;47.844;8.966;2023-04-16T04:10:46;7.72;;;4.38;;
58384;SDS011;44185;47.844;8.966;2023-04-16T04:13:11;10.32;;;4.20;;
58384;SDS011;44185;47.844;8.966;2023-04-16T04:15:37;8.10;;;3.88;;
58384;SDS011;44185;47.844;8.966;2023-04-16T04:18:02;9.98;;;4.10;;
58384;SDS011;44185;47.844;8.966;2023-04-16T04:20:28;9.27;;;4.30;;
58384;SDS011;44185;47.844;8.966;2023-04-16T04:22:53;9.27;;;4.40;;
58384;SDS011;44185;47.844;8.966;2023-04-16T04:25:19;7.72;;;3.88;;
58384;SDS011;44185;47.844;8.966;2023-04-16T04:27:46;8.73;;;4.30;;
58384;SDS011;44185;47.844;8.966;2023-04-16T04:30:11;9.40;;;4.75;;
58384;SDS011;44185;47.844;8.966;2023-04-16T04:32:36;8.05;;;4.28;;
58384;SDS011;44185;47.844;8.966;2023-04-16T04:35:02;7.20;;;4.00;;
58384;SDS011;44185;47.844;8.966;2023-04-16T04:37:28;8.70;;;4.38;;
58384;SDS011;44185;47.844;8.966;2023-04-16T04:39:53;7.70;;;4.03;;
58384;SDS011;44185;47.844;8.966;2023-04-16T04:42:19;8.48;;;3.83;;
58384;SDS011;44185;47.844;8.966;2023-04-16T04:44:46;10.18;;;4.72;;
58384;SDS011;44185;47.844;8.966;2023-04-16T04:47:12;9.15;;;4.63;;
58384;SDS011;44185;47.844;8.966;2023-04-16T04:49:38;8.55;;;4.40;;
58384;SDS011;44185;47.844;8.966;2023-04-16T04:52:04;8.68;;;4.53;;
58384;SDS011;44185;47.844;8.966;2023-04-16T04:54:30;6.85;;;3.80;;
58384;SDS011;44185;47.844;8.966;2023-04-16T04:56:56;7.18;;;4.15;;
58384;SDS011;44185;47.844;8.966;2023-04-16T04:59:22;8.25;;;4.40;;
58384;SDS011;44185;47.844;8.966;2023-04-16T05:01:49;9.23;;;4.28;;
58384;SDS011;44185;47.844;8.966;2023-04-16T05:04:15;9.00;;;4.38;;
58384;SDS011;44185;47.844;8.966;2023-04-16T05:06:41;8.52;;;4.50;;
58384;SDS011;44185;47.844;8.966;2023-04-16T05:09:07;7.75;;;4.15;;
58384;SDS011;44185;47.844;8.966;2023-04-16T05:11:32;7.82;;;3.92;;
58384;SDS011;44185;47.844;8.966;2023-04-16T05:13:58;7.78;;;4.07;;
58384;SDS011;44185;47.844;8.966;2023-04-16T05:16:23;7.80;;;3.90;;
58384;SDS011;44185;47.844;8.966;2023-04-16T05:18:50;8.57;;;4.10;;
58384;SDS011;44185;47.844;8.966;2023-04-16T05:21:15;9.45;;;4.43;;
58384;SDS011;44185;47.844;8.966;2023-04-16T05:23:41;9.75;;;4.63;;
58384;SDS011;44185;47.844;8.966;2023-04-16T05:26:06;9.43;;;4.50;;
58384;SDS011;44185;47.844;8.966;2023-04-16T05:28:32;8.52;;;4.45;;
58384;SDS011;44185;47.844;8.966;2023-04-16T05:30:57;131.85;;;61.22;;
58384;SDS011;44185;47.844;8.966;2023-04-16T05:33:23;215.13;;;72.25;;
58384;SDS011;44185;47.844;8.966;2023-04-16T05:35:50;1570.97;;;641.55;;
58384;SDS011;44185;47.844;8.966;2023-04-16T05:38:16;807.40;;;319.58;;
58384;SDS011;44185;47.844;8.966;2023-04-16T05:40:41;813.92;;;354.23;;
58384;SDS011;44185;47.844;8.966;2023-04-16T05:43:06;481.48;;;183.23;;
58384;SDS011;44185;47.844;8.966;2023-04-16T05:45:32;468.67;;;174.02;;
58384;SDS011;44185;47.844;8.966;2023-04-16T05:47:58;780.60;;;310.85;;
58384;SDS011;44185;47.844;8.966;2023-04-16T05:50:23;101.90;;;35.25;;
58384;SDS011;44185;47.844;8.966;2023-04-16T05:52:50;1003.13;;;438.45;;
58384;SDS011;44185;47.844;8.966;2023-04-16T05:55:15;466.40;;;185.38;;
58384;SDS011;44185;47.844;8.966;2023-04-16T05:57:41;80.40;;;33.33;;
58384;SDS011;44185;47.844;8.966;2023-04-16T06:00:07;20.27;;;8.38;;
58384;SDS011;44185;47.844;8.966;2023-04-16T06:02:33;88.10;;;61.97;;
58384;SDS011;44185;47.844;8.966;2023-04-16T06:04:58;28.63;;;18.35;;
58384;SDS011;44185;47.844;8.966;2023-04-16T06:07:24;67.85;;;49.42;;
58384;SDS011;44185;47.844;8.966;2023-04-16T06:09:50;19.15;;;13.43;;
58384;SDS011;44185;47.844;8.966;2023-04-16T06:12:16;7.55;;;4.40;;
58384;SDS011;44185;47.844;8.966;2023-04-16T06:14:41;7.57;;;4.30;;
58384;SDS011;44185;47.844;8.966;2023-04-16T06:17:07;7.03;;;3.58;;
58384;SDS011;44185;47.844;8.966;2023-04-16T06:19:32;8.35;;;4.93;;
58384;SDS011;44185;47.844;8.966;2023-04-16T06:21:58;8.88;;;4.13;;
58384;SDS011;44185;47.844;8.966;2023-04-16T06:24:23;8.32;;;4.00;;
58384;SDS011;44185;47.844;8.966;2023-04-16T06:26:50;6.93;;;3.90;;
58384;SDS011;44185;47.844;8.966;2023-04-16T06:29:15;7.68;;;3.60;;
58384;SDS011;44185;47.844;8.966;2023-04-16T06:31:41;7.10;;;3.80;;
58384;SDS011;44185;47.844;8.966;2023-04-16T06:34:06;6.90;;;4.00;;
58384;SDS011;44185;47.844;8.966;2023-04-16T06:36:32;6.25;;;3.70;;
58384;SDS011;44185;47.844;8.966;2023-04-16T06:38:57;6.95;;;3.90;;
58384;SDS011;44185;47.844;8.966;2023-04-16T06:41:23;6.72;;;4.03;;
58384;SDS011;44185;47.844;8.966;2023-04-16T06:43:50;5.68;;;3.60;;
58384;SDS011;44185;47.844;8.966;2023-04-16T06:46:16;8.20;;;4.00;;
58384;SDS011;44185;47.844;8.966;2023-04-16T06:48:41;7.13;;;3.90;;
58384;SDS011;44185;47.844;8.966;2023-04-16T06:51:07;7.45;;;4.22;;
58384;SDS011;44185;47.844;8.966;2023-04-16T06:53:32;9.25;;;4.05;;
58384;SDS011;44185;47.844;8.966;2023-04-16T06:55:58;8.75;;;4.28;;
58384;SDS011;44185;47.844;8.966;2023-04-16T06:58:24;10.13;;;4.72;;
58384;SDS011;44185;47.844;8.966;2023-04-16T07:00:50;8.02;;;4.45;;
58384;SDS011;44185;47.844;8.966;2023-04-16T07:03:16;7.97;;;4.30;;
58384;SDS011;44185;47.844;8.966;2023-04-16T07:05:41;8.38;;;4.70;;
58384;SDS011;44185;47.844;8.966;2023-04-16T07:08:07;7.80;;;4.65;;
58384;SDS011;44185;47.844;8.966;2023-04-16T07:10:32;9.17;;;4.90;;
58384;SDS011;44185;47.844;8.966;2023-04-16T07:12:58;11.35;;;5.90;;
58384;SDS011;44185;47.844;8.966;2023-04-16T07:15:23;9.48;;;5.53;;
58384;SDS011;44185;47.844;8.966;2023-04-16T07:17:50;8.55;;;4.40;;
58384;SDS011;44185;47.844;8.966;2023-04-16T07:20:16;10.85;;;5.78;;
58384;SDS011;44185;47.844;8.966;2023-04-16T07:22:41;9.57;;;4.50;;
58384;SDS011;44185;47.844;8.966;2023-04-16T07:25:07;8.07;;;4.32;;
58384;SDS011;44185;47.844;8.966;2023-04-16T07:27:33;8.52;;;4.13;;
58384;SDS011;44185;47.844;8.966;2023-04-16T07:29:58;10.63;;;5.80;;
58384;SDS011;44185;47.844;8.966;2023-04-16T07:32:24;9.85;;;5.22;;
58384;SDS011;44185;47.844;8.966;2023-04-16T07:34:51;7.88;;;4.63;;
58384;SDS011;44185;47.844;8.966;2023-04-16T07:37:16;9.13;;;4.80;;
58384;SDS011;44185;47.844;8.966;2023-04-16T07:39:42;7.95;;;4.95;;
58384;SDS011;44185;47.844;8.966;2023-04-16T07:42:07;9.75;;;5.15;;
58384;SDS011;44185;47.844;8.966;2023-04-16T07:44:32;9.35;;;5.05;;
58384;SDS011;44185;47.844;8.966;2023-04-16T07:46:58;7.28;;;4.35;;
58384;SDS011;44185;47.844;8.966;2023-04-16T07:49:23;7.88;;;4.13;;
58384;SDS011;44185;47.844;8.966;2023-04-16T07:51:50;9.07;;;4.95;;
58384;SDS011;44185;47.844;8.966;2023-04-16T07:54:16;6.20;;;4.20;;
58384;SDS011;44185;47.844;8.966;2023-04-16T07:56:41;8.10;;;4.10;;
58384;SDS011;44185;47.844;8.966;2023-04-16T07:59:07;8.55;;;4.30;;
58384;SDS011;44185;47.844;8.966;2023-04-16T08:01:32;9.05;;;4.10;;
58384;SDS011;44185;47.844;8.966;2023-04-16T08:03:57;7.40;;;4.45;;
58384;SDS011;44185;47.844;8.966;2023-04-16T08:06:23;7.05;;;4.57;;
58384;SDS011;44185;47.844;8.966;2023-04-16T08:08:50;9.20;;;4.72;;
58384;SDS011;44185;47.844;8.966;2023-04-16T08:11:16;8.85;;;4.45;;
58384;SDS011;44185;47.844;8.966;2023-04-16T08:13:42;10.02;;;5.82;;
58384;SDS011;44185;47.844;8.966;2023-04-16T08:16:07;10.15;;;6.20;;
58384;SDS011;44185;47.844;8.966;2023-04-16T08:18:32;12.07;;;6.45;;
58384;SDS011;44185;47.844;8.966;2023-04-16T08:20:58;10.32;;;6.40;;
58384;SDS011;44185;47.844;8.966;2023-04-16T08:23:23;10.43;;;6.25;;
58384;SDS011;44185;47.844;8.966;2023-04-16T08:25:50;11.55;;;5.72;;
58384;SDS011;44185;47.844;8.966;2023-04-16T08:28:16;18.83;;;9.18;;
58384;SDS011;44185;47.844;8.966;2023-04-16T08:30:41;11.70;;;5.85;;
58384;SDS011;44185;47.844;8.966;2023-04-16T08:33:06;10.60;;;4.70;;
58384;SDS011;44185;47.844;8.966;2023-04-16T08:35:32;9.07;;;5.07;;
58384;SDS011;44185;47.844;8.966;2023-04-16T08:37:57;8.00;;;4.57;;
58384;SDS011;44185;47.844;8.966;2023-04-16T08:40:23;9.10;;;4.82;;
58384;SDS011;44185;47.844;8.966;2023-04-16T08:42:52;11.25;;;5.15;;
58384;SDS011;44185;47.844;8.966;2023-04-16T08:45:18;13.20;;;5.60;;
58384;SDS011;44185;47.844;8.966;2023-04-16T08:47:44;9.93;;;4.03;;
58384;SDS011;44185;47.844;8.966;2023-04-16T08:50:12;6.53;;;3.70;;
58384;SDS011;44185;47.844;8.966;2023-04-16T08:52:40;9.15;;;4.70;;
58384;SDS011;44185;47.844;8.966;2023-04-16T08:55:15;6.47;;;3.78;;
58384;SDS011;44185;47.844;8.966;2023-04-16T08:57:43;8.88;;;4.55;;
58384;SDS011;44185;47.844;8.966;2023-04-16T09:00:13;11.13;;;5.43;;
58384;SDS011;44185;47.844;8.966;2023-04-16T09:02:39;12.80;;;5.75;;
58384;SDS011;44185;47.844;8.966;2023-04-16T09:05:06;10.07;;;4.90;;
58384;SDS011;44185;47.844;8.966;2023-04-16T09:07:33;12.93;;;5.57;;
58384;SDS011;44185;47.844;8.966;2023-04-16T09:10:00;9.18;;;4.43;;
58384;SDS011;44185;47.844;8.966;2023-04-16T09:12:26;6.43;;;3.33;;
58384;SDS011;44185;47.844;8.966;2023-04-16T09:14:51;5.13;;;3.30;;
58384;SDS011;44185;47.844;8.966;2023-04-16T09:17:18;4.40;;;3.25;;
58384;SDS011;44185;47.844;8.966;2023-04-16T09:19:44;6.13;;;3.63;;
58384;SDS011;44185;47.844;8.966;2023-04-16T09:22:10;3.55;;;2.83;;
58384;SDS011;44185;47.844;8.966;2023-04-16T09:24:35;4.13;;;2.75;;
58384;SDS011;44185;47.844;8.966;2023-04-16T09:27:01;3.65;;;2.55;;
58384;SDS011;44185;47.844;8.966;2023-04-16T09:29:32;3.17;;;2.70;;
58384;SDS011;44185;47.844;8.966;2023-04-16T09:32:00;3.67;;;2.75;;
58384;SDS011;44185;47.844;8.966;2023-04-16T09:34:27;2.70;;;2.33;;
58384;SDS011;44185;47.844;8.966;2023-04-16T09:36:53;6.20;;;3.08;;
58384;SDS011;44185;47.844;8.966;2023-04-16T09:39:19;6.60;;;3.00;;
58384;SDS011;44185;47.844;8.966;2023-04-16T09:41:44;5.22;;;3.00;;
58384;SDS011;44185;47.844;8.966;2023-04-16T09:44:11;4.68;;;3.58;;
58384;SDS011;44185;47.844;8.966;2023-04-16T09:46:40;5.63;;;2.80;;
58384;SDS011;44185;47.844;8.966;2023-04-16T09:49:07;6.90;;;3.35;;
58384;SDS011;44185;47.844;8.966;2023-04-16T09:51:36;4.53;;;2.60;;
58384;SDS011;44185;47.844;8.966;2023-04-16T09:54:04;5.57;;;3.17;;
58384;SDS011;44185;47.844;8.966;2023-04-16T09:56:30;6.13;;;3.90;;
58384;SDS011;44185;47.844;8.966;2023-04-16T09:58:55;4.47;;;2.70;;
58384;SDS011;44185;47.844;8.966;2023-04-16T10:01:21;7.93;;;3.05;;
58384;SDS011;44185;47.844;8.966;2023-04-16T10:03:48;5.63;;;3.78;;
58384;SDS011;44185;47.844;8.966;2023-04-16T10:06:14;9.45;;;8.30;;
58384;SDS011;44185;47.844;8.966;2023-04-16T10:08:46;3.97;;;3.60;;
58384;SDS011;44185;47.844;8.966;2023-04-16T10:11:12;6.28;;;4.85;;
58384;SDS011;44185;47.844;8.966;2023-04-16T10:13:38;4.05;;;3.20;;
58384;SDS011;44185;47.844;8.966;2023-04-16T10:16:04;8.88;;;5.30;;
58384;SDS011;44185;47.844;8.966;2023-04-16T10:18:31;5.32;;;3.53;;
58384;SDS011;44185;47.844;8.966;2023-04-16T10:20:57;13.93;;;7.93;;
58384;SDS011;44185;47.844;8.966;2023-04-16T10:23:23;7.22;;;4.13;;
58384;SDS011;44185;47.844;8.966;2023-04-16T10:25:50;11.43;;;6.45;;
58384;SDS011;44185;47.844;8.966;2023-04-16T10:28:18;6.93;;;4.00;;
58384;SDS011;44185;47.844;8.966;2023-04-16T10:30:44;12.98;;;7.70;;
58384;SDS011;44185;47.844;8.966;2023-04-16T10:33:12;35.42;;;28.05;;
58384;SDS011;44185;47.844;8.966;2023-04-16T10:35:38;27.23;;;16.98;;
58384;SDS011;44185;47.844;8.966;2023-04-16T10:40:48;5.13;;;3.42;;
58384;SDS011;44185;47.844;8.966;2023-04-16T10:43:17;5.20;;;3.53;;
58384;SDS011;44185;47.844;8.966;2023-04-16T10:45:42;4.90;;;2.95;;
58384;SDS011;44185;47.844;8.966;2023-04-16T10:48:08;3.95;;;2.90;;
58384;SDS011;44185;47.844;8.966;2023-04-16T10:50:34;3.53;;;3.00;;
58384;SDS011;44185;47.844;8.966;2023-04-16T10:58:30;3.22;;;2.80;;
58384;SDS011;44185;47.844;8.966;2023-04-16T11:00:58;3.60;;;2.45;;
58384;SDS011;44185;47.844;8.966;2023-04-16T11:03:23;4.00;;;2.97;;
58384;SDS011;44185;47.844;8.966;2023-04-16T11:05:49;7.20;;;3.83;;
58384;SDS011;44185;47.844;8.966;2023-04-16T11:08:14;7.50;;;4.50;;
58384;SDS011;44185;47.844;8.966;2023-04-16T11:10:40;9.57;;;5.88;;
58384;SDS011;44185;47.844;8.966;2023-04-16T11:13:06;8.02;;;4.40;;
58384;SDS011;44185;47.844;8.966;2023-04-16T11:15:33;5.63;;;3.40;;
58384;SDS011;44185;47.844;8.966;2023-04-16T11:17:58;6.43;;;3.40;;
58384;SDS011;44185;47.844;8.966;2023-04-16T11:20:24;7.00;;;3.67;;
58384;SDS011;44185;47.844;8.966;2023-04-16T11:22:51;8.00;;;3.67;;
58384;SDS011;44185;47.844;8.966;2023-04-16T11:25:18;7.97;;;3.42;;
58384;SDS011;44185;47.844;8.966;2023-04-16T11:27:44;7.97;;;4.22;;
58384;SDS011;44185;47.844;8.966;2023-04-16T11:30:09;7.57;;;3.72;;
58384;SDS011;44185;47.844;8.966;2023-04-16T11:32:37;8.98;;;4.78;;
58384;SDS011;44185;47.844;8.966;2023-04-16T11:35:04;10.63;;;4.97;;
58384;SDS011;44185;47.844;8.966;2023-04-16T11:37:38;9.00;;;4.22;;
58384;SDS011;44185;47.844;8.966;2023-04-16T11:40:04;8.40;;;4.78;;
58384;SDS011;44185;47.844;8.966;2023-04-16T11:42:31;7.15;;;4.00;;
58384;SDS011;44185;47.844;8.966;2023-04-16T11:44:58;7.70;;;3.92;;
58384;SDS011;44185;47.844;8.966;2023-04-16T11:47:24;7.63;;;4.47;;
58384;SDS011;44185;47.844;8.966;2023-04-16T11:49:51;8.73;;;4.13;;
58384;SDS011;44185;47.844;8.966;2023-04-16T11:52:26;7.88;;;3.97;;
58384;SDS011;44185;47.844;8.966;2023-04-16T11:54:53;8.80;;;4.55;;
58384;SDS011;44185;47.844;8.966;2023-04-16T11:57:23;13.45;;;6.03;;
58384;SDS011;44185;47.844;8.966;2023-04-16T11:59:49;10.98;;;6.18;;
58384;SDS011;44185;47.844;8.966;2023-04-16T12:02:15;9.40;;;4.90;;
58384;SDS011;44185;47.844;8.966;2023-04-16T12:04:40;11.27;;;5.80;;
58384;SDS011;44185;47.844;8.966;2023-04-16T12:07:08;10.60;;;5.70;;
58384;SDS011;44185;47.844;8.966;2023-04-16T12:09:35;10.60;;;5.80;;
58384;SDS011;44185;47.844;8.966;2023-04-16T12:12:01;9.05;;;4.30;;
58384;SDS011;44185;47.844;8.966;2023-04-16T12:14:27;14.07;;;6.00;;
58384;SDS011;44185;47.844;8.966;2023-04-16T12:16:53;10.60;;;5.32;;
58384;SDS011;44185;47.844;8.966;2023-04-16T12:19:19;12.52;;;5.90;;
58384;SDS011;44185;47.844;8.966;2023-04-16T12:21:45;12.82;;;5.85;;
58384;SDS011;44185;47.844;8.966;2023-04-16T12:24:14;13.75;;;6.15;;
58384;SDS011;44185;47.844;8.966;2023-04-16T12:26:41;12.93;;;6.20;;
58384;SDS011;44185;47.844;8.966;2023-04-16T12:29:18;13.57;;;6.20;;
58384;SDS011;44185;47.844;8.966;2023-04-16T12:31:45;12.98;;;6.03;;
58384;SDS011;44185;47.844;8.966;2023-04-16T12:34:11;13.02;;;6.28;;
58384;SDS011;44185;47.844;8.966;2023-04-16T12:36:37;12.85;;;6.35;;
58384;SDS011;44185;47.844;8.966;2023-04-16T12:39:02;13.68;;;6.05;;
58384;SDS011;44185;47.844;8.966;2023-04-16T12:41:29;13.30;;;6.40;;
58384;SDS011;44185;47.844;8.966;2023-04-16T12:44:01;13.80;;;6.60;;
58384;SDS011;44185;47.844;8.966;2023-04-16T12:46:27;12.52;;;6.90;;
58384;SDS011;44185;47.844;8.966;2023-04-16T12:48:53;15.98;;;7.53;;
58384;SDS011;44185;47.844;8.966;2023-04-16T12:51:19;12.95;;;6.65;;
58384;SDS011;44185;47.844;8.966;2023-04-16T12:53:44;14.73;;;7.35;;
58384;SDS011;44185;47.844;8.966;2023-04-16T12:56:10;15.25;;;7.05;;
58384;SDS011;44185;47.844;8.966;2023-04-16T12:58:37;13.30;;;6.90;;
58384;SDS011;44185;47.844;8.966;2023-04-16T13:01:02;15.25;;;7.75;;
58384;SDS011;44185;47.844;8.966;2023-04-16T13:03:27;12.60;;;6.50;;
58384;SDS011;44185;47.844;8.966;2023-04-16T13:05:53;14.18;;;6.55;;
58384;SDS011;44185;47.844;8.966;2023-04-16T13:08:19;12.07;;;6.07;;
58384;SDS011;44185;47.844;8.966;2023-04-16T13:10:44;14.63;;;6.93;;
58384;SDS011;44185;47.844;8.966;2023-04-16T13:13:10;15.38;;;7.05;;
58384;SDS011;44185;47.844;8.966;2023-04-16T13:15:37;14.20;;;6.50;;
58384;SDS011;44185;47.844;8.966;2023-04-16T13:18:02;15.00;;;6.75;;
58384;SDS011;44185;47.844;8.966;2023-04-16T13:20:28;15.00;;;7.35;;
58384;SDS011;44185;47.844;8.966;2023-04-16T13:22:53;14.07;;;6.75;;
58384;SDS011;44185;47.844;8.966;2023-04-16T13:25:19;13.68;;;7.10;;
58384;SDS011;44185;47.844;8.966;2023-04-16T13:27:44;15.27;;;6.97;;
58384;SDS011;44185;47.844;8.966;2023-04-16T13:30:10;15.13;;;7.32;;
58384;SDS011;44185;47.844;8.966;2023-04-16T13:32:37;15.95;;;7.47;;
58384;SDS011;44185;47.844;8.966;2023-04-16T13:35:03;15.90;;;7.97;;
58384;SDS011;44185;47.844;8.966;2023-04-16T13:37:29;14.38;;;6.80;;
58384;SDS011;44185;47.844;8.966;2023-04-16T13:39:54;14.98;;;7.88;;
58384;SDS011;44185;47.844;8.966;2023-04-16T13:42:20;15.57;;;7.40;;
58384;SDS011;44185;47.844;8.966;2023-04-16T13:44:45;14.57;;;7.28;;
58384;SDS011;44185;47.844;8.966;2023-04-16T13:47:11;14.25;;;7.13;;
58384;SDS011;44185;47.844;8.966;2023-04-16T13:49:38;15.87;;;7.93;;
58384;SDS011;44185;47.844;8.966;2023-04-16T13:52:03;15.25;;;6.82;;
58384;SDS011;44185;47.844;8.966;2023-04-16T13:54:29;17.08;;;8.05;;
58384;SDS011;44185;47.844;8.966;2023-04-16T13:56:54;15.90;;;7.20;;
58384;SDS011;44185;47.844;8.966;2023-04-16T13:59:20;13.60;;;6.53;;
58384;SDS011;44185;47.844;8.966;2023-04-16T14:01:45;15.27;;;6.65;;
58384;SDS011;44185;47.844;8.966;2023-04-16T14:04:11;14.13;;;7.13;;
58384;SDS011;44185;47.844;8.966;2023-04-16T14:06:38;12.32;;;6.40;;
58384;SDS011;44185;47.844;8.966;2023-04-16T14:09:03;15.38;;;7.60;;
58384;SDS011;44185;47.844;8.966;2023-04-16T14:11:29;15.40;;;6.70;;
58384;SDS011;44185;47.844;8.966;2023-04-16T14:13:55;16.92;;;9.00;;
58384;SDS011;44185;47.844;8.966;2023-04-16T14:16:20;15.53;;;6.90;;
58384;SDS011;44185;47.844;8.966;2023-04-16T14:18:46;15.55;;;8.57;;
58384;SDS011;44185;47.844;8.966;2023-04-16T14:21:11;15.55;;;7.13;;
58384;SDS011;44185;47.844;8.966;2023-04-16T14:23:38;13.32;;;6.28;;
58384;SDS011;44185;47.844;8.966;2023-04-16T14:26:04;17.08;;;8.20;;
58384;SDS011;44185;47.844;8.966;2023-04-16T14:28:29;19.15;;;9.77;;
58384;SDS011;44185;47.844;8.966;2023-04-16T14:30:55;14.50;;;7.10;;
58384;SDS011;44185;47.844;8.966;2023-04-16T14:33:20;14.30;;;6.32;;
58384;SDS011;44185;47.844;8.966;2023-04-16T14:35:46;12.32;;;5.95;;
58384;SDS011;44185;47.844;8.966;2023-04-16T14:38:11;16.27;;;7.90;;
58384;SDS011;44185;47.844;8.966;2023-04-16T14:40:38;15.73;;;7.40;;
58384;SDS011;44185;47.844;8.966;2023-04-16T14:43:03;20.95;;;10.63;;